sensor_id;sensor_type;location;lat;lon;timestamp;pressure;altitude;pressure_sealevel;temperature;humidity
55550;BME280;41397;49.972;18.944;2023-09-08T00:00:31;102655.23;;;21.90;65.31
55550;BME280;41397;49.972;18.944;2023-09-08T00:03:37;102653.91;;;21.94;65.17
55550;BME280;41397;49.972;18.944;2023-09-08T00:06:38;102647.14;;;21.97;65.05
55550;BME280;41397;49.972;18.944;2023-09-08T00:09:39;102649.45;;;22.01;64.84
55550;BME280;41397;49.972;18.944;2023-09-08T00:12:41;102643.32;;;21.98;65.02
55550;BME280;41397;49.972;18.944;2023-09-08T00:15:42;102648.65;;;21.91;65.38
55550;BME280;41397;49.972;18.944;2023-09-08T00:18:44;102643.53;;;21.86;65.12
55550;BME280;41397;49.972;18.944;2023-09-08T00:21:45;102646.22;;;21.78;65.53
55550;BME280;41397;49.972;18.944;2023-09-08T00:24:46;102645.66;;;21.75;65.53
55550;BME280;41397;49.972;18.944;2023-09-08T00:27:48;102640.54;;;21.70;65.69
55550;BME280;41397;49.972;18.944;2023-09-08T00:30:49;102648.80;;;21.52;66.39
55550;BME280;41397;49.972;18.944;2023-09-08T00:33:50;102645.20;;;21.42;66.50
55550;BME280;41397;49.972;18.944;2023-09-08T00:36:54;102646.66;;;21.36;66.48
55550;BME280;41397;49.972;18.944;2023-09-08T00:39:56;102640.82;;;21.39;66.28
55550;BME280;41397;49.972;18.944;2023-09-08T00:42:57;102635.80;;;21.33;66.67
55550;BME280;41397;49.972;18.944;2023-09-08T00:45:58;102636.84;;;21.32;66.62
55550;BME280;41397;49.972;18.944;2023-09-08T00:49:03;102632.14;;;21.33;66.51
55550;BME280;41397;49.972;18.944;2023-09-08T00:52:05;102631.41;;;21.31;66.39
55550;BME280;41397;49.972;18.944;2023-09-08T00:55:07;102633.31;;;21.30;66.42
55550;BME280;41397;49.972;18.944;2023-09-08T00:58:09;102635.11;;;21.21;66.68
55550;BME280;41397;49.972;18.944;2023-09-08T01:01:12;102630.45;;;21.12;67.01
55550;BME280;41397;49.972;18.944;2023-09-08T01:04:13;102623.24;;;21.19;66.69
55550;BME280;41397;49.972;18.944;2023-09-08T01:07:15;102621.51;;;21.18;66.59
55550;BME280;41397;49.972;18.944;2023-09-08T01:10:17;102622.38;;;21.19;66.76
55550;BME280;41397;49.972;18.944;2023-09-08T01:13:18;102629.73;;;21.10;66.83
55550;BME280;41397;49.972;18.944;2023-09-08T01:16:19;102620.03;;;21.14;66.50
55550;BME280;41397;49.972;18.944;2023-09-08T01:19:22;102619.47;;;21.11;66.61
55550;BME280;41397;49.972;18.944;2023-09-08T01:25:42;102635.16;;;21.02;66.80
55550;BME280;41397;49.972;18.944;2023-09-08T01:28:49;102631.51;;;21.01;66.60
55550;BME280;41397;49.972;18.944;2023-09-08T01:31:51;102627.55;;;20.94;66.90
55550;BME280;41397;49.972;18.944;2023-09-08T01:34:53;102632.81;;;20.97;66.76
55550;BME280;41397;49.972;18.944;2023-09-08T01:37:54;102633.55;;;20.99;66.75
55550;BME280;41397;49.972;18.944;2023-09-08T01:40:55;102631.07;;;20.96;66.80
55550;BME280;41397;49.972;18.944;2023-09-08T01:43:56;102637.52;;;20.97;66.87
55550;BME280;41397;49.972;18.944;2023-09-08T01:46:58;102631.07;;;20.96;66.69
55550;BME280;41397;49.972;18.944;2023-09-08T01:50:00;102630.47;;;21.02;66.37
55550;BME280;41397;49.972;18.944;2023-09-08T01:53:01;102637.80;;;21.03;66.51
55550;BME280;41397;49.972;18.944;2023-09-08T01:56:02;102632.24;;;21.03;66.47
55550;BME280;41397;49.972;18.944;2023-09-08T01:59:04;102634.00;;;20.95;66.75
55550;BME280;41397;49.972;18.944;2023-09-08T02:02:06;102633.27;;;20.83;66.97
55550;BME280;41397;49.972;18.944;2023-09-08T02:05:08;102639.88;;;20.72;67.48
55550;BME280;41397;49.972;18.944;2023-09-08T02:08:10;102640.47;;;20.56;68.13
55550;BME280;41397;49.972;18.944;2023-09-08T02:11:11;102642.63;;;20.53;68.14
55550;BME280;41397;49.972;18.944;2023-09-08T02:14:12;102636.48;;;20.49;68.08
55550;BME280;41397;49.972;18.944;2023-09-08T02:17:17;102640.89;;;20.52;68.01
55550;BME280;41397;49.972;18.944;2023-09-08T02:20:18;102629.16;;;20.48;68.10
55550;BME280;41397;49.972;18.944;2023-09-08T02:23:19;102630.79;;;20.41;68.44
55550;BME280;41397;49.972;18.944;2023-09-08T02:26:20;102632.66;;;20.40;68.22
55550;BME280;41397;49.972;18.944;2023-09-08T02:29:25;102637.80;;;20.45;68.08
55550;BME280;41397;49.972;18.944;2023-09-08T02:32:26;102636.07;;;20.54;67.79
55550;BME280;41397;49.972;18.944;2023-09-08T02:35:27;102634.30;;;20.53;67.79
55550;BME280;41397;49.972;18.944;2023-09-08T02:38:28;102626.73;;;20.55;67.62
55550;BME280;41397;49.972;18.944;2023-09-08T02:41:33;102631.81;;;20.50;67.61
55550;BME280;41397;49.972;18.944;2023-09-08T02:44:35;102624.48;;;20.49;67.71
55550;BME280;41397;49.972;18.944;2023-09-08T02:47:36;102627.41;;;20.47;67.61
55550;BME280;41397;49.972;18.944;2023-09-08T02:50:37;102630.04;;;20.39;67.87
55550;BME280;41397;49.972;18.944;2023-09-08T02:53:41;102625.23;;;20.41;67.68
55550;BME280;41397;49.972;18.944;2023-09-08T02:56:42;102624.48;;;20.49;67.26
55550;BME280;41397;49.972;18.944;2023-09-08T02:59:51;102622.89;;;20.46;67.35
55550;BME280;41397;49.972;18.944;2023-09-08T03:02:52;102619.81;;;20.30;67.93
55550;BME280;41397;49.972;18.944;2023-09-08T03:05:54;102618.92;;;20.20;68.38
55550;BME280;41397;49.972;18.944;2023-09-08T03:08:59;102619.38;;;20.25;67.99
55550;BME280;41397;49.972;18.944;2023-09-08T03:12:00;102617.02;;;20.20;68.28
55550;BME280;41397;49.972;18.944;2023-09-08T03:15:03;102617.60;;;20.14;68.29
55550;BME280;41397;49.972;18.944;2023-09-08T03:18:05;102615.11;;;20.11;68.31
55550;BME280;41397;49.972;18.944;2023-09-08T03:21:06;102608.07;;;20.07;68.28
55550;BME280;41397;49.972;18.944;2023-09-08T03:24:11;102609.80;;;20.08;68.39
55550;BME280;41397;49.972;18.944;2023-09-08T03:27:12;102611.01;;;20.05;68.17
55550;BME280;41397;49.972;18.944;2023-09-08T03:30:13;102603.10;;;20.01;68.07
55550;BME280;41397;49.972;18.944;2023-09-08T03:33:14;102599.87;;;19.95;68.49
55550;BME280;41397;49.972;18.944;2023-09-08T03:36:16;102596.51;;;20.02;67.90
55550;BME280;41397;49.972;18.944;2023-09-08T03:39:17;102597.13;;;20.05;67.70
55550;BME280;41397;49.972;18.944;2023-09-08T03:42:20;102607.19;;;20.06;67.58
55550;BME280;41397;49.972;18.944;2023-09-08T03:45:21;102598.70;;;20.08;67.44
55550;BME280;41397;49.972;18.944;2023-09-08T03:48:22;102595.66;;;20.11;67.11
55550;BME280;41397;49.972;18.944;2023-09-08T03:51:24;102585.56;;;20.10;67.17
55550;BME280;41397;49.972;18.944;2023-09-08T03:54:25;102587.17;;;20.12;66.97
55550;BME280;41397;49.972;18.944;2023-09-08T03:57:26;102589.95;;;20.03;67.31
55550;BME280;41397;49.972;18.944;2023-09-08T04:00:27;102593.15;;;19.98;67.47
55550;BME280;41397;49.972;18.944;2023-09-08T04:03:29;102593.45;;;20.05;67.28
55550;BME280;41397;49.972;18.944;2023-09-08T04:06:30;102594.18;;;20.07;67.07
55550;BME280;41397;49.972;18.944;2023-09-08T04:09:31;102599.02;;;20.14;66.94
55550;BME280;41397;49.972;18.944;2023-09-08T04:12:33;102599.89;;;20.15;66.74
55550;BME280;41397;49.972;18.944;2023-09-08T04:15:34;102599.02;;;20.14;66.50
55550;BME280;41397;49.972;18.944;2023-09-08T04:18:38;102603.55;;;20.15;66.42
55550;BME280;41397;49.972;18.944;2023-09-08T04:21:40;102593.59;;;20.13;66.39
55550;BME280;41397;49.972;18.944;2023-09-08T04:24:42;102592.14;;;20.18;66.16
55550;BME280;41397;49.972;18.944;2023-09-08T04:27:43;102598.16;;;20.33;65.91
55550;BME280;41397;49.972;18.944;2023-09-08T04:30:46;102603.27;;;20.48;65.63
55550;BME280;41397;49.972;18.944;2023-09-08T04:33:47;102605.34;;;20.75;65.12
55550;BME280;41397;49.972;18.944;2023-09-08T04:36:48;102607.21;;;20.94;64.36
55550;BME280;41397;49.972;18.944;2023-09-08T04:39:49;102608.16;;;21.22;63.81
55550;BME280;41397;49.972;18.944;2023-09-08T04:42:54;102608.92;;;21.61;63.28
55550;BME280;41397;49.972;18.944;2023-09-08T04:48:44;102616.66;;;22.41;61.38
55550;BME280;41397;49.972;18.944;2023-09-08T04:51:45;102620.68;;;22.82;60.49
55550;BME280;41397;49.972;18.944;2023-09-08T04:54:47;102620.48;;;23.19;59.61
55550;BME280;41397;49.972;18.944;2023-09-08T04:57:52;102607.95;;;23.58;58.72
55550;BME280;41397;49.972;18.944;2023-09-08T05:00:53;102606.75;;;24.03;58.13
55550;BME280;41397;49.972;18.944;2023-09-08T05:03:54;102603.91;;;24.45;57.09
55550;BME280;41397;49.972;18.944;2023-09-08T05:06:55;102605.49;;;24.80;55.44
55550;BME280;41397;49.972;18.944;2023-09-08T05:10:00;102613.30;;;25.10;54.75
55550;BME280;41397;49.972;18.944;2023-09-08T05:13:01;102617.12;;;25.50;53.86
55550;BME280;41397;49.972;18.944;2023-09-08T05:16:02;102617.15;;;25.81;52.90
55550;BME280;41397;49.972;18.944;2023-09-08T05:19:12;102612.15;;;26.07;51.69
55550;BME280;41397;49.972;18.944;2023-09-08T05:22:14;102609.57;;;26.29;51.51
55550;BME280;41397;49.972;18.944;2023-09-08T05:25:15;102616.60;;;26.56;51.31
55550;BME280;41397;49.972;18.944;2023-09-08T05:28:16;102616.49;;;26.87;50.53
55550;BME280;41397;49.972;18.944;2023-09-08T05:31:17;102617.31;;;26.96;49.75
55550;BME280;41397;49.972;18.944;2023-09-08T05:34:18;102614.09;;;27.22;49.15
55550;BME280;41397;49.972;18.944;2023-09-08T05:37:19;102610.83;;;27.48;49.40
55550;BME280;41397;49.972;18.944;2023-09-08T05:40:21;102609.44;;;27.74;48.48
55550;BME280;41397;49.972;18.944;2023-09-08T05:43:25;102618.55;;;27.91;48.02
55550;BME280;41397;49.972;18.944;2023-09-08T05:46:26;102616.20;;;28.09;47.97
55550;BME280;41397;49.972;18.944;2023-09-08T05:49:27;102624.00;;;28.28;47.55
55550;BME280;41397;49.972;18.944;2023-09-08T05:52:28;102612.52;;;28.45;47.42
55550;BME280;41397;49.972;18.944;2023-09-08T05:55:29;102625.87;;;28.58;46.81
55550;BME280;41397;49.972;18.944;2023-09-08T05:58:31;102622.18;;;28.79;47.17
55550;BME280;41397;49.972;18.944;2023-09-08T06:01:32;102620.36;;;28.92;46.67
55550;BME280;41397;49.972;18.944;2023-09-08T06:04:33;102614.77;;;28.99;46.10
55550;BME280;41397;49.972;18.944;2023-09-08T06:07:35;102619.01;;;29.10;45.94
55550;BME280;41397;49.972;18.944;2023-09-08T06:10:39;102623.17;;;29.14;45.98
55550;BME280;41397;49.972;18.944;2023-09-08T06:13:40;102616.49;;;29.21;46.05
55550;BME280;41397;49.972;18.944;2023-09-08T06:16:42;102619.38;;;29.28;45.99
55550;BME280;41397;49.972;18.944;2023-09-08T06:19:44;102612.91;;;29.34;45.79
55550;BME280;41397;49.972;18.944;2023-09-08T06:22:47;102620.36;;;29.49;45.85
55550;BME280;41397;49.972;18.944;2023-09-08T06:25:49;102611.98;;;29.62;45.43
55550;BME280;41397;49.972;18.944;2023-09-08T06:28:50;102624.54;;;29.59;44.84
55550;BME280;41397;49.972;18.944;2023-09-08T06:31:51;102615.66;;;29.62;44.61
55550;BME280;41397;49.972;18.944;2023-09-08T06:34:54;102618.77;;;29.68;45.35
55550;BME280;41397;49.972;18.944;2023-09-08T06:37:55;102616.37;;;29.64;44.85
55550;BME280;41397;49.972;18.944;2023-09-08T06:40:58;102619.63;;;29.68;45.29
55550;BME280;41397;49.972;18.944;2023-09-08T06:43:59;102615.75;;;29.69;45.10
55550;BME280;41397;49.972;18.944;2023-09-08T06:47:02;102624.04;;;29.77;45.61
55550;BME280;41397;49.972;18.944;2023-09-08T06:50:07;102618.42;;;29.84;45.22
55550;BME280;41397;49.972;18.944;2023-09-08T06:53:08;102624.91;;;29.78;45.40
55550;BME280;41397;49.972;18.944;2023-09-08T06:56:11;102625.52;;;29.73;45.24
55550;BME280;41397;49.972;18.944;2023-09-08T06:59:12;102632.86;;;29.68;45.44
55550;BME280;41397;49.972;18.944;2023-09-08T07:02:13;102637.20;;;29.63;45.60
55550;BME280;41397;49.972;18.944;2023-09-08T07:05:15;102637.22;;;29.70;45.44
55550;BME280;41397;49.972;18.944;2023-09-08T07:08:17;102630.10;;;29.74;45.86
55550;BME280;41397;49.972;18.944;2023-09-08T07:11:18;102630.34;;;29.79;45.86
55550;BME280;41397;49.972;18.944;2023-09-08T07:14:20;102627.98;;;29.90;46.74
55550;BME280;41397;49.972;18.944;2023-09-08T07:17:21;102626.70;;;29.92;46.01
55550;BME280;41397;49.972;18.944;2023-09-08T07:20:24;102629.32;;;29.94;45.61
55550;BME280;41397;49.972;18.944;2023-09-08T07:23:25;102627.13;;;29.89;45.45
55550;BME280;41397;49.972;18.944;2023-09-08T07:26:27;102628.84;;;29.90;45.88
55550;BME280;41397;49.972;18.944;2023-09-08T07:29:28;102633.88;;;29.95;46.17
55550;BME280;41397;49.972;18.944;2023-09-08T07:32:30;102624.09;;;29.91;46.45
55550;BME280;41397;49.972;18.944;2023-09-08T07:35:37;102625.15;;;29.83;45.80
55550;BME280;41397;49.972;18.944;2023-09-08T07:38:38;102620.38;;;29.83;46.70
55550;BME280;41397;49.972;18.944;2023-09-08T07:41:39;102627.52;;;29.79;45.96
55550;BME280;41397;49.972;18.944;2023-09-08T07:44:41;102623.79;;;29.72;46.23
55550;BME280;41397;49.972;18.944;2023-09-08T07:47:42;102630.04;;;29.68;45.92
55550;BME280;41397;49.972;18.944;2023-09-08T07:50:45;102623.73;;;29.65;46.30
55550;BME280;41397;49.972;18.944;2023-09-08T07:53:47;102622.92;;;29.72;46.45
55550;BME280;41397;49.972;18.944;2023-09-08T07:56:48;102614.23;;;29.73;46.68
55550;BME280;41397;49.972;18.944;2023-09-08T07:59:49;102623.12;;;29.70;47.19
55550;BME280;41397;49.972;18.944;2023-09-08T08:02:53;102620.30;;;29.70;45.97
55550;BME280;41397;49.972;18.944;2023-09-08T08:05:56;102619.38;;;29.63;46.52
55550;BME280;41397;49.972;18.944;2023-09-08T08:08:58;102611.12;;;29.61;46.32
55550;BME280;41397;49.972;18.944;2023-09-08T08:11:59;102613.02;;;29.54;46.61
55550;BME280;41397;49.972;18.944;2023-09-08T08:15:01;102618.02;;;29.52;46.32
55550;BME280;41397;49.972;18.944;2023-09-08T08:18:06;102610.87;;;29.56;45.82
55550;BME280;41397;49.972;18.944;2023-09-08T08:21:08;102613.94;;;29.61;47.10
55550;BME280;41397;49.972;18.944;2023-09-08T08:24:09;102608.77;;;29.65;46.26
55550;BME280;41397;49.972;18.944;2023-09-08T08:27:11;102598.35;;;29.65;46.35
55550;BME280;41397;49.972;18.944;2023-09-08T08:30:12;102612.84;;;29.62;45.43
55550;BME280;41397;49.972;18.944;2023-09-08T08:33:14;102608.27;;;29.55;45.49
55550;BME280;41397;49.972;18.944;2023-09-08T08:36:15;102605.27;;;29.63;45.67
55550;BME280;41397;49.972;18.944;2023-09-08T08:39:16;102606.96;;;29.57;45.01
55550;BME280;41397;49.972;18.944;2023-09-08T08:42:17;102605.48;;;29.61;45.05
55550;BME280;41397;49.972;18.944;2023-09-08T08:45:26;102609.63;;;29.65;45.17
55550;BME280;41397;49.972;18.944;2023-09-08T08:48:29;102601.84;;;29.68;45.44
55550;BME280;41397;49.972;18.944;2023-09-08T08:51:31;102600.56;;;29.70;44.91
55550;BME280;41397;49.972;18.944;2023-09-08T08:54:38;102594.68;;;29.65;44.51
55550;BME280;41397;49.972;18.944;2023-09-08T08:57:40;102596.78;;;29.56;45.52
55550;BME280;41397;49.972;18.944;2023-09-08T09:00:41;102605.66;;;29.60;45.37
55550;BME280;41397;49.972;18.944;2023-09-08T09:03:50;102610.92;;;29.63;46.01
55550;BME280;41397;49.972;18.944;2023-09-08T09:06:55;102600.93;;;29.60;45.89
55550;BME280;41397;49.972;18.944;2023-09-08T09:09:57;102595.29;;;29.60;45.93
55550;BME280;41397;49.972;18.944;2023-09-08T09:12:58;102597.61;;;29.50;46.59
55550;BME280;41397;49.972;18.944;2023-09-08T09:16:02;102590.88;;;29.51;47.04
55550;BME280;41397;49.972;18.944;2023-09-08T09:19:04;102584.88;;;29.61;47.10
55550;BME280;41397;49.972;18.944;2023-09-08T09:22:06;102582.25;;;29.59;46.57
55550;BME280;41397;49.972;18.944;2023-09-08T09:25:07;102588.55;;;29.55;47.19
55550;BME280;41397;49.972;18.944;2023-09-08T09:28:08;102590.47;;;29.54;46.63
55550;BME280;41397;49.972;18.944;2023-09-08T09:31:09;102585.05;;;29.53;46.62
55550;BME280;41397;49.972;18.944;2023-09-08T09:34:11;102585.48;;;29.50;46.27
55550;BME280;41397;49.972;18.944;2023-09-08T09:37:13;102579.15;;;29.48;47.20
55550;BME280;41397;49.972;18.944;2023-09-08T09:40:14;102585.66;;;29.48;46.40
55550;BME280;41397;49.972;18.944;2023-09-08T09:43:16;102582.09;;;29.33;47.10
55550;BME280;41397;49.972;18.944;2023-09-08T09:46:19;102575.84;;;29.37;46.50
55550;BME280;41397;49.972;18.944;2023-09-08T09:49:22;102567.21;;;29.46;47.16
55550;BME280;41397;49.972;18.944;2023-09-08T09:52:38;102571.57;;;29.48;46.14
55550;BME280;41397;49.972;18.944;2023-09-08T09:55:41;102569.85;;;29.47;46.76
55550;BME280;41397;49.972;18.944;2023-09-08T09:58:43;102566.77;;;29.42;47.06
55550;BME280;41397;49.972;18.944;2023-09-08T10:01:45;102563.72;;;29.43;46.62
55550;BME280;41397;49.972;18.944;2023-09-08T10:04:48;102558.08;;;29.43;45.74
55550;BME280;41397;49.972;18.944;2023-09-08T10:07:51;102563.09;;;29.41;45.35
55550;BME280;41397;49.972;18.944;2023-09-08T10:10:52;102556.12;;;29.37;44.56
55550;BME280;41397;49.972;18.944;2023-09-08T10:13:58;102555.70;;;29.40;44.83
55550;BME280;41397;49.972;18.944;2023-09-08T10:17:01;102562.52;;;29.25;44.14
55550;BME280;41397;49.972;18.944;2023-09-08T10:20:05;102557.73;;;29.18;44.97
55550;BME280;41397;49.972;18.944;2023-09-08T10:23:17;102557.05;;;29.16;44.40
55550;BME280;41397;49.972;18.944;2023-09-08T10:26:26;102556.86;;;29.18;43.90
55550;BME280;41397;49.972;18.944;2023-09-08T10:29:30;102548.40;;;29.18;44.84
55550;BME280;41397;49.972;18.944;2023-09-08T10:32:35;102546.27;;;29.20;44.32
55550;BME280;41397;49.972;18.944;2023-09-08T10:35:43;102541.69;;;29.19;44.71
55550;BME280;41397;49.972;18.944;2023-09-08T10:38:45;102542.97;;;29.16;44.46
55550;BME280;41397;49.972;18.944;2023-09-08T10:48:15;102540.00;;;28.96;45.20
55550;BME280;41397;49.972;18.944;2023-09-08T10:51:20;102543.23;;;28.93;45.42
55550;BME280;41397;49.972;18.944;2023-09-08T10:54:48;102540.41;;;28.93;45.08
55550;BME280;41397;49.972;18.944;2023-09-08T10:57:44;102539.32;;;28.94;45.91
55550;BME280;41397;49.972;18.944;2023-09-08T11:00:47;102530.42;;;28.91;45.59
55550;BME280;41397;49.972;18.944;2023-09-08T11:03:49;102525.02;;;28.89;44.87
55550;BME280;41397;49.972;18.944;2023-09-08T11:06:52;102525.66;;;28.91;45.26
55550;BME280;41397;49.972;18.944;2023-09-08T11:09:53;102525.04;;;28.96;45.58
55550;BME280;41397;49.972;18.944;2023-09-08T11:12:54;102516.17;;;28.99;45.36
55550;BME280;41397;49.972;18.944;2023-09-08T11:15:56;102518.08;;;28.92;46.13
55550;BME280;41397;49.972;18.944;2023-09-08T11:18:57;102519.21;;;28.97;45.74
55550;BME280;41397;49.972;18.944;2023-09-08T11:21:58;102516.41;;;28.97;46.31
55550;BME280;41397;49.972;18.944;2023-09-08T11:25:01;102514.87;;;28.95;45.25
55550;BME280;41397;49.972;18.944;2023-09-08T11:28:05;102518.99;;;28.99;45.15
55550;BME280;41397;49.972;18.944;2023-09-08T11:31:07;102518.80;;;29.01;45.18
55550;BME280;41397;49.972;18.944;2023-09-08T11:34:11;102511.31;;;28.86;44.87
55550;BME280;41397;49.972;18.944;2023-09-08T11:37:19;102514.77;;;28.82;44.62
55550;BME280;41397;49.972;18.944;2023-09-08T11:40:21;102507.49;;;28.66;45.28
55550;BME280;41397;49.972;18.944;2023-09-08T11:43:23;102507.12;;;28.75;45.26
55550;BME280;41397;49.972;18.944;2023-09-08T11:46:24;102508.88;;;28.76;45.44
55550;BME280;41397;49.972;18.944;2023-09-08T11:49:35;102508.91;;;28.83;45.24
55550;BME280;41397;49.972;18.944;2023-09-08T11:52:37;102498.59;;;28.90;46.40
55550;BME280;41397;49.972;18.944;2023-09-08T11:55:38;102501.91;;;29.01;45.69
55550;BME280;41397;49.972;18.944;2023-09-08T11:58:41;102496.13;;;29.09;46.00
55550;BME280;41397;49.972;18.944;2023-09-08T12:01:43;102504.59;;;29.09;45.84
55550;BME280;41397;49.972;18.944;2023-09-08T12:04:45;102494.63;;;29.13;45.40
55550;BME280;41397;49.972;18.944;2023-09-08T12:07:47;102506.16;;;29.18;45.57
55550;BME280;41397;49.972;18.944;2023-09-08T12:10:48;102495.79;;;29.25;45.73
55550;BME280;41397;49.972;18.944;2023-09-08T12:13:49;102493.01;;;29.32;45.71
55550;BME280;41397;49.972;18.944;2023-09-08T12:20:17;102485.40;;;29.32;44.67
55550;BME280;41397;49.972;18.944;2023-09-08T12:23:21;102483.25;;;29.34;44.60
55550;BME280;41397;49.972;18.944;2023-09-08T12:26:24;102473.94;;;29.34;44.84
55550;BME280;41397;49.972;18.944;2023-09-08T12:29:25;102476.52;;;29.35;44.89
55550;BME280;41397;49.972;18.944;2023-09-08T12:32:35;102476.95;;;29.32;44.75
55550;BME280;41397;49.972;18.944;2023-09-08T12:35:37;102470.01;;;29.28;44.35
55550;BME280;41397;49.972;18.944;2023-09-08T12:38:38;102473.67;;;29.22;43.57
55550;BME280;41397;49.972;18.944;2023-09-08T12:41:40;102469.71;;;29.16;44.42
55550;BME280;41397;49.972;18.944;2023-09-08T12:44:43;102466.89;;;29.16;44.24
55550;BME280;41397;49.972;18.944;2023-09-08T12:47:44;102459.77;;;29.14;44.14
55550;BME280;41397;49.972;18.944;2023-09-08T12:50:48;102470.10;;;29.07;43.92
55550;BME280;41397;49.972;18.944;2023-09-08T12:53:50;102461.38;;;29.02;44.32
55550;BME280;41397;49.972;18.944;2023-09-08T12:56:51;102455.25;;;28.91;43.93
55550;BME280;41397;49.972;18.944;2023-09-08T12:59:52;102450.09;;;28.95;44.76
55550;BME280;41397;49.972;18.944;2023-09-08T13:02:53;102450.28;;;28.93;44.69
55550;BME280;41397;49.972;18.944;2023-09-08T13:05:55;102446.38;;;28.94;44.25
55550;BME280;41397;49.972;18.944;2023-09-08T13:08:58;102448.74;;;28.91;44.22
55550;BME280;41397;49.972;18.944;2023-09-08T13:11:59;102444.85;;;28.92;44.61
55550;BME280;41397;49.972;18.944;2023-09-08T13:15:01;102442.86;;;28.86;44.29
55550;BME280;41397;49.972;18.944;2023-09-08T13:18:02;102445.48;;;28.87;44.96
55550;BME280;41397;49.972;18.944;2023-09-08T13:21:06;102433.13;;;28.88;44.65
55550;BME280;41397;49.972;18.944;2023-09-08T13:24:08;102429.28;;;28.96;44.72
55550;BME280;41397;49.972;18.944;2023-09-08T13:27:09;102425.85;;;29.01;44.77
55550;BME280;41397;49.972;18.944;2023-09-08T13:30:14;102433.40;;;29.00;43.76
55550;BME280;41397;49.972;18.944;2023-09-08T13:33:15;102431.91;;;28.97;44.08
55550;BME280;41397;49.972;18.944;2023-09-08T13:36:16;102425.17;;;28.98;44.01
55550;BME280;41397;49.972;18.944;2023-09-08T13:39:17;102424.95;;;29.00;44.16
55550;BME280;41397;49.972;18.944;2023-09-08T13:42:19;102421.95;;;29.02;44.54
55550;BME280;41397;49.972;18.944;2023-09-08T13:45:22;102418.27;;;29.01;44.20
55550;BME280;41397;49.972;18.944;2023-09-08T13:48:23;102421.08;;;29.01;44.15
55550;BME280;41397;49.972;18.944;2023-09-08T13:51:24;102414.59;;;29.01;44.13
55550;BME280;41397;49.972;18.944;2023-09-08T13:54:25;102405.65;;;28.97;44.07
55550;BME280;41397;49.972;18.944;2023-09-08T13:57:29;102398.91;;;28.91;44.34
55550;BME280;41397;49.972;18.944;2023-09-08T14:00:30;102409.92;;;28.86;43.95
55550;BME280;41397;49.972;18.944;2023-09-08T14:03:32;102403.86;;;28.83;44.40
55550;BME280;41397;49.972;18.944;2023-09-08T14:06:33;102404.09;;;28.81;44.19
55550;BME280;41397;49.972;18.944;2023-09-08T14:09:37;102399.26;;;28.75;44.15
55550;BME280;41397;49.972;18.944;2023-09-08T14:12:38;102399.06;;;28.76;44.00
55550;BME280;41397;49.972;18.944;2023-09-08T14:15:39;102394.10;;;28.79;44.68
55550;BME280;41397;49.972;18.944;2023-09-08T14:18:41;102392.76;;;28.74;45.11
55550;BME280;41397;49.972;18.944;2023-09-08T14:21:45;102395.58;;;28.74;44.68
55550;BME280;41397;49.972;18.944;2023-09-08T14:24:46;102401.65;;;28.78;44.47
55550;BME280;41397;49.972;18.944;2023-09-08T14:27:47;102391.23;;;28.72;44.08
55550;BME280;41397;49.972;18.944;2023-09-08T14:30:55;102385.35;;;28.67;44.49
55550;BME280;41397;49.972;18.944;2023-09-08T14:33:57;102394.18;;;28.57;44.28
55550;BME280;41397;49.972;18.944;2023-09-08T14:36:58;102388.08;;;28.53;44.21
55550;BME280;41397;49.972;18.944;2023-09-08T14:39:59;102385.93;;;28.55;44.24
55550;BME280;41397;49.972;18.944;2023-09-08T14:43:01;102380.27;;;28.49;44.02
55550;BME280;41397;49.972;18.944;2023-09-08T14:46:02;102376.80;;;28.47;44.15
55550;BME280;41397;49.972;18.944;2023-09-08T14:49:06;102371.61;;;28.50;44.32
55550;BME280;41397;49.972;18.944;2023-09-08T14:52:07;102369.21;;;28.47;43.95
55550;BME280;41397;49.972;18.944;2023-09-08T14:55:08;102374.16;;;28.45;43.94
55550;BME280;41397;49.972;18.944;2023-09-08T14:58:10;102377.58;;;28.41;43.44
55550;BME280;41397;49.972;18.944;2023-09-08T15:01:13;102382.74;;;28.37;43.48
55550;BME280;41397;49.972;18.944;2023-09-08T15:04:19;102376.92;;;28.39;44.41
55550;BME280;41397;49.972;18.944;2023-09-08T15:07:24;102370.41;;;28.38;43.99
55550;BME280;41397;49.972;18.944;2023-09-08T15:10:30;102360.00;;;28.32;43.85
55550;BME280;41397;49.972;18.944;2023-09-08T15:13:44;102369.30;;;28.32;43.26
55550;BME280;41397;49.972;18.944;2023-09-08T15:16:58;102372.11;;;28.32;43.72
55550;BME280;41397;49.972;18.944;2023-09-08T15:20:02;102372.37;;;28.38;43.05
55550;BME280;41397;49.972;18.944;2023-09-08T15:23:26;102370.35;;;28.31;42.91
55550;BME280;41397;49.972;18.944;2023-09-08T15:26:46;102365.82;;;28.30;43.31
55550;BME280;41397;49.972;18.944;2023-09-08T15:29:48;102375.95;;;28.25;43.29
55550;BME280;41397;49.972;18.944;2023-09-08T15:32:50;102373.58;;;28.28;43.36
55550;BME280;41397;49.972;18.944;2023-09-08T15:36:02;102363.61;;;28.26;43.71
55550;BME280;41397;49.972;18.944;2023-09-08T15:39:16;102369.20;;;28.19;43.60
55550;BME280;41397;49.972;18.944;2023-09-08T15:42:30;102365.30;;;28.20;43.33
55550;BME280;41397;49.972;18.944;2023-09-08T15:45:40;102369.61;;;28.16;43.23
55550;BME280;41397;49.972;18.944;2023-09-08T15:48:41;102363.27;;;28.07;42.49
55550;BME280;41397;49.972;18.944;2023-09-08T15:51:42;102356.30;;;28.03;42.74
55550;BME280;41397;49.972;18.944;2023-09-08T15:54:43;102354.35;;;28.04;42.44
55550;BME280;41397;49.972;18.944;2023-09-08T15:57:44;102353.94;;;28.07;42.36